Pagrindinis puslapis
METAR-TAF:

METAR-TAF

Oro uostai :

Scampton, Anglija

platuma: 53-18-27N, ilguma: 000-33-03W, Aukštis: 62 m

Dabartinis oras

Ataskaita buvo paskelbta 1 valandą ir 21 minutes, ne 09:50 UTC
Vėjas 8 kt iš Rytų/Šiaurės Rytų
Temperatūra 8°C
Drėgmė 61%
Slėgis 1034 hPa
Matomumas 10 km arba daugiau

METAR: EGXP 310950Z AUTO 07008KT 9999 // BKN030/// 08/01 Q1034

Laikas: 12:11 (11:11 UTC)


TAF: trūkstamas

Orai ataskaitas ir orų prognozės (METAR, TAF).

turimą stotys yra geltonos ir raudonos taškus žemėlapyje.

Perkelti pele per norėdami pamatyti stoties vardą.

Tada spustelėkite, norėdami matyti oro stebėjimo ir prognozės.

Norėdami pakeisti žemėlapį: spustelėkite ant žalios mygtukų su juodo kryžiaus žemyn,; žalią mygtuką su brūkšneliu, jei norite nutolinti; arba žalių rodyklių gretimoms žemėlapius.


METAR-TAF: